Time;durP1;ratioP1;P1;durP2;ratioP2;P2;SDS_P1;SDS_P2;PMS_P1;PMS_P2;Temp;Humidity;BMP_temperature;BMP_pressure;BME280_temperature;BME280_humidity;BME280_pressure;Samples;Min_cycle;Max_cycle;Signal;HPM_P1;HPM_P2
2024/01/05 00:02:17;;;;;;;1.23;0.93;;;;;;;;;;5021437;28;20045;-86
2024/01/05 00:04:45;;;;;;;1.00;0.90;;;;;;;;;;5017389;28;20494;-86
2024/01/05 00:07:15;;;;;;;1.27;1.00;;;;;;;;;;5021606;28;20587;-86
2024/01/05 00:09:43;;;;;;;3.00;1.40;;;;;;;;;;5021350;28;20057;-86
2024/01/05 00:12:13;;;;;;;2.08;0.90;;;;;;;;;;5022196;28;20045;-86
2024/01/05 00:14:41;;;;;;;3.67;1.02;;;;;;;;;;5022285;28;20050;-86
2024/01/05 00:17:10;;;;;;;1.40;0.85;;;;;;;;;;5021425;28;20045;-86
2024/01/05 00:19:38;;;;;;;2.40;1.05;;;;;;;;;;5019150;28;20123;-86
2024/01/05 00:22:07;;;;;;;1.83;0.90;;;;;;;;;;5015742;28;20499;-87
2024/01/05 00:24:37;;;;;;;1.08;0.90;;;;;;;;;;5019844;28;20495;-87
2024/01/05 00:27:05;;;;;;;2.50;1.08;;;;;;;;;;5019847;28;20115;-87
2024/01/05 00:29:35;;;;;;;1.42;1.00;;;;;;;;;;5024517;28;20045;-86
2024/01/05 00:32:03;;;;;;;1.88;1.00;;;;;;;;;;5022928;28;20049;-87
2024/01/05 00:34:31;;;;;;;4.07;1.08;;;;;;;;;;5026563;28;20049;-86
2024/01/05 00:37:00;;;;;;;0.80;0.80;;;;;;;;;;5022588;28;20522;-86
2024/01/05 00:39:28;;;;;;;1.52;1.00;;;;;;;;;;5022791;28;20046;-86
2024/01/05 00:41:57;;;;;;;1.27;0.93;;;;;;;;;;5027097;28;20324;-86
2024/01/05 00:44:27;;;;;;;3.00;0.95;;;;;;;;;;5022826;28;20041;-87
2024/01/05 00:46:56;;;;;;;1.92;0.90;;;;;;;;;;5025402;28;20141;-86
2024/01/05 00:49:25;;;;;;;1.52;0.90;;;;;;;;;;5020814;28;20060;-86
2024/01/05 00:51:53;;;;;;;2.35;1.20;;;;;;;;;;5019704;28;20047;-86
2024/01/05 00:54:22;;;;;;;1.73;0.80;;;;;;;;;;5024576;28;20046;-87
2024/01/05 00:56:50;;;;;;;2.33;0.90;;;;;;;;;;5024561;28;20050;-87
2024/01/05 00:59:20;;;;;;;1.23;0.88;;;;;;;;;;5022228;28;20169;-86
2024/01/05 01:01:48;;;;;;;1.77;1.00;;;;;;;;;;5019826;28;20062;-86
2024/01/05 01:04:18;;;;;;;1.10;0.80;;;;;;;;;;5024490;28;20104;-86
2024/01/05 01:06:47;;;;;;;1.85;0.88;;;;;;;;;;5025308;28;20076;-86
2024/01/05 01:09:16;;;;;;;1.65;1.02;;;;;;;;;;5021607;28;20434;-87
2024/01/05 01:11:45;;;;;;;1.17;1.08;;;;;;;;;;5024220;28;20080;-86
2024/01/05 01:14:13;;;;;;;0.65;0.65;;;;;;;;;;5019152;28;20120;-86
2024/01/05 01:16:42;;;;;;;2.38;0.90;;;;;;;;;;5024581;28;20453;-86
2024/01/05 01:19:10;;;;;;;1.67;1.05;;;;;;;;;;5021108;28;20354;-86
2024/01/05 01:21:40;;;;;;;3.22;0.90;;;;;;;;;;5022259;28;20085;-86
2024/01/05 01:24:09;;;;;;;3.30;0.80;;;;;;;;;;5017981;28;20048;-86
2024/01/05 01:26:38;;;;;;;0.80;0.80;;;;;;;;;;5020323;28;20056;-86
2024/01/05 01:29:08;;;;;;;2.90;1.15;;;;;;;;;;5022028;28;20133;-86
2024/01/05 01:31:36;;;;;;;0.70;0.70;;;;;;;;;;5021283;28;20045;-86
2024/01/05 01:34:06;;;;;;;1.23;0.90;;;;;;;;;;5017305;28;20065;-86
2024/01/05 01:36:34;;;;;;;1.27;0.90;;;;;;;;;;5021503;28;20042;-86
2024/01/05 01:39:05;;;;;;;1.65;1.00;;;;;;;;;;5021272;28;20046;-86
2024/01/05 01:41:33;;;;;;;0.70;0.70;;;;;;;;;;5021454;28;20042;-87
2024/01/05 01:44:02;;;;;;;1.13;0.80;;;;;;;;;;5020078;28;20552;-86
2024/01/05 01:46:33;;;;;;;0.80;0.70;;;;;;;;;;5017967;28;20442;-87
2024/01/05 01:49:01;;;;;;;0.90;0.88;;;;;;;;;;5023136;28;20050;-87
2024/01/05 01:51:31;;;;;;;1.58;0.90;;;;;;;;;;5018419;28;20061;-86
2024/01/05 01:54:00;;;;;;;2.25;0.90;;;;;;;;;;5021549;28;20054;-86
2024/01/05 01:56:30;;;;;;;1.88;0.80;;;;;;;;;;5024242;28;20057;-87
2024/01/05 01:58:59;;;;;;;2.13;0.88;;;;;;;;;;5022850;28;20577;-86
2024/01/05 02:01:28;;;;;;;1.30;0.80;;;;;;;;;;5024920;28;20056;-86
2024/01/05 02:03:56;;;;;;;2.58;1.00;;;;;;;;;;5019036;28;20062;-86
2024/01/05 02:06:25;;;;;;;3.63;1.05;;;;;;;;;;5018439;28;20069;-86
2024/01/05 02:08:54;;;;;;;2.72;0.95;;;;;;;;;;5020173;28;20410;-86
2024/01/05 02:11:23;;;;;;;1.00;0.90;;;;;;;;;;5023946;28;20065;-86
2024/01/05 02:13:54;;;;;;;0.80;0.70;;;;;;;;;;5023922;28;20045;-86
2024/01/05 02:16:22;;;;;;;0.73;0.73;;;;;;;;;;5023788;28;20141;-86
2024/01/05 02:18:55;;;;;;;2.60;0.93;;;;;;;;;;5023548;28;20081;-87
2024/01/05 02:21:24;;;;;;;3.33;1.10;;;;;;;;;;5017979;28;20124;-86
2024/01/05 02:23:54;;;;;;;1.17;1.02;;;;;;;;;;5018282;28;20092;-86
2024/01/05 02:26:23;;;;;;;1.58;0.95;;;;;;;;;;5017228;28;20058;-86
2024/01/05 02:28:52;;;;;;;2.22;0.90;;;;;;;;;;5019419;28;20053;-86
2024/01/05 02:31:20;;;;;;;2.60;0.90;;;;;;;;;;5024541;28;20060;-86
2024/01/05 02:33:49;;;;;;;0.95;0.85;;;;;;;;;;5018994;28;20052;-86
2024/01/05 02:36:17;;;;;;;0.70;0.65;;;;;;;;;;5017103;28;20075;-86
2024/01/05 02:38:46;;;;;;;1.23;0.70;;;;;;;;;;5018780;28;20053;-86
2024/01/05 02:41:15;;;;;;;1.17;0.90;;;;;;;;;;5019247;28;20049;-86
2024/01/05 02:43:44;;;;;;;1.20;0.60;;;;;;;;;;5017399;28;20081;-86
2024/01/05 02:46:12;;;;;;;1.60;0.90;;;;;;;;;;5023526;28;20064;-86
2024/01/05 02:48:40;;;;;;;0.85;0.68;;;;;;;;;;5021094;28;20099;-87
2024/01/05 02:51:10;;;;;;;2.90;0.90;;;;;;;;;;5023636;28;20418;-86
2024/01/05 02:53:42;;;;;;;0.95;0.52;;;;;;;;;;5023951;28;20099;-86
2024/01/05 02:56:21;;;;;;;1.45;0.90;;;;;;;;;;5016718;28;20437;-87
2024/01/05 02:58:49;;;;;;;2.05;1.17;;;;;;;;;;5019657;28;20069;-87
2024/01/05 03:01:17;;;;;;;1.63;0.90;;;;;;;;;;5023569;28;20099;-87
2024/01/05 03:03:47;;;;;;;4.65;0.90;;;;;;;;;;5021866;28;20061;-86
2024/01/05 03:06:19;;;;;;;0.77;0.70;;;;;;;;;;5016460;28;20050;-86
2024/01/05 03:08:48;;;;;;;0.65;0.65;;;;;;;;;;5017885;28;20547;-86
2024/01/05 03:11:16;;;;;;;0.70;0.70;;;;;;;;;;5016101;28;20100;-87
2024/01/05 03:13:46;;;;;;;1.38;0.82;;;;;;;;;;5017839;28;20072;-86
2024/01/05 03:16:14;;;;;;;0.75;0.75;;;;;;;;;;5023063;28;20123;-87
2024/01/05 03:18:43;;;;;;;0.75;0.60;;;;;;;;;;5021597;28;20060;-86
2024/01/05 03:21:12;;;;;;;1.88;0.93;;;;;;;;;;5023494;28;20132;-86
2024/01/05 03:23:40;;;;;;;1.15;0.77;;;;;;;;;;5016782;28;20057;-86
2024/01/05 03:26:09;;;;;;;0.70;0.70;;;;;;;;;;5018340;28;20045;-86
2024/01/05 03:28:38;;;;;;;1.15;0.77;;;;;;;;;;5021110;28;20115;-86
2024/01/05 03:31:12;;;;;;;3.28;1.00;;;;;;;;;;5018534;28;20100;-86
2024/01/05 03:33:41;;;;;;;1.15;0.90;;;;;;;;;;5017140;28;20127;-86
2024/01/05 03:36:10;;;;;;;2.75;0.88;;;;;;;;;;5022585;28;20054;-87
2024/01/05 03:38:39;;;;;;;1.55;0.75;;;;;;;;;;5021166;28;20051;-86
2024/01/05 03:41:07;;;;;;;0.70;0.70;;;;;;;;;;5020654;28;20045;-86
2024/01/05 03:43:35;;;;;;;1.05;0.80;;;;;;;;;;5020949;28;20062;-86
2024/01/05 03:46:04;;;;;;;2.47;0.90;;;;;;;;;;5023668;28;20049;-86
2024/01/05 03:48:34;;;;;;;1.40;0.82;;;;;;;;;;5023046;28;20103;-86
2024/01/05 03:51:03;;;;;;;0.95;0.70;;;;;;;;;;5018243;28;20099;-86
2024/01/05 03:53:31;;;;;;;1.02;0.80;;;;;;;;;;5016764;28;20049;-86
2024/01/05 03:56:00;;;;;;;0.63;0.63;;;;;;;;;;5022744;28;20057;-86
2024/01/05 03:58:28;;;;;;;1.10;0.70;;;;;;;;;;5024371;28;20052;-86
2024/01/05 04:00:57;;;;;;;0.73;0.70;;;;;;;;;;5019306;28;20086;-86
2024/01/05 04:03:25;;;;;;;0.65;0.65;;;;;;;;;;5033074;28;20132;-86
2024/01/05 04:05:55;;;;;;;0.60;0.60;;;;;;;;;;5031638;28;20100;-86
2024/01/05 04:08:24;;;;;;;2.15;0.93;;;;;;;;;;5016226;28;20048;-86
2024/01/05 04:10:52;;;;;;;3.83;1.20;;;;;;;;;;5023511;28;20467;-87
2024/01/05 04:13:20;;;;;;;1.20;0.88;;;;;;;;;;5022638;28;20057;-86
2024/01/05 04:15:49;;;;;;;0.88;0.68;;;;;;;;;;5020135;28;20111;-86
2024/01/05 04:18:17;;;;;;;0.80;0.80;;;;;;;;;;5018187;28;20161;-86
2024/01/05 04:20:46;;;;;;;1.98;1.08;;;;;;;;;;5016264;28;20060;-86
2024/01/05 04:23:16;;;;;;;2.13;0.98;;;;;;;;;;5021708;28;20054;-86
2024/01/05 04:25:44;;;;;;;1.42;0.75;;;;;;;;;;5019393;28;20418;-86
2024/01/05 04:28:13;;;;;;;0.73;0.65;;;;;;;;;;5021491;28;20053;-86
2024/01/05 04:30:42;;;;;;;0.80;0.80;;;;;;;;;;5015547;28;20050;-86
2024/01/05 04:33:11;;;;;;;0.60;0.60;;;;;;;;;;5017052;28;20057;-86
2024/01/05 04:35:41;;;;;;;1.58;0.98;;;;;;;;;;5016888;28;20064;-86
2024/01/05 04:38:09;;;;;;;0.85;0.82;;;;;;;;;;5014218;28;20220;-86
2024/01/05 04:40:39;;;;;;;0.80;0.80;;;;;;;;;;5018097;28;20758;-86
2024/01/05 04:43:07;;;;;;;3.00;0.90;;;;;;;;;;5015558;28;20499;-86
2024/01/05 04:45:36;;;;;;;1.38;0.80;;;;;;;;;;5021410;28;20053;-87
2024/01/05 04:48:05;;;;;;;3.05;0.90;;;;;;;;;;5021647;28;20128;-86
2024/01/05 04:50:34;;;;;;;2.20;0.88;;;;;;;;;;5018315;28;20061;-86
2024/01/05 04:53:02;;;;;;;1.65;0.80;;;;;;;;;;5015100;28;20516;-86
2024/01/05 04:55:30;;;;;;;1.20;0.60;;;;;;;;;;5017682;28;20058;-86
2024/01/05 04:58:00;;;;;;;0.75;0.75;;;;;;;;;;5016828;28;20053;-86
2024/01/05 05:00:28;;;;;;;1.48;0.90;;;;;;;;;;5021416;28;20449;-86
2024/01/05 05:02:57;;;;;;;0.70;0.68;;;;;;;;;;5016381;28;20085;-88
2024/01/05 05:05:25;;;;;;;0.80;0.80;;;;;;;;;;5022051;28;20112;-86
2024/01/05 05:07:54;;;;;;;1.80;1.00;;;;;;;;;;5017016;28;20477;-87
2024/01/05 05:10:23;;;;;;;0.70;0.70;;;;;;;;;;5023246;28;20049;-87
2024/01/05 05:12:52;;;;;;;0.88;0.88;;;;;;;;;;5021597;28;20080;-86
2024/01/05 05:15:21;;;;;;;0.70;0.70;;;;;;;;;;5019284;28;20529;-86
2024/01/05 05:17:51;;;;;;;1.20;0.80;;;;;;;;;;5024738;28;20060;-86
2024/01/05 05:20:22;;;;;;;1.65;1.00;;;;;;;;;;5024723;28;20053;-87
2024/01/05 05:22:51;;;;;;;1.55;0.70;;;;;;;;;;5026448;28;20123;-86
2024/01/05 05:25:19;;;;;;;1.00;0.88;;;;;;;;;;5023982;28;20057;-86
2024/01/05 05:27:47;;;;;;;2.45;1.00;;;;;;;;;;5018403;28;20116;-86
2024/01/05 05:30:17;;;;;;;1.65;0.95;;;;;;;;;;5024490;28;20147;-86
2024/01/05 05:32:47;;;;;;;1.17;0.98;;;;;;;;;;5020782;28;20164;-86
2024/01/05 05:35:15;;;;;;;1.23;0.88;;;;;;;;;;5025330;28;20053;-86
2024/01/05 05:37:44;;;;;;;3.00;1.27;;;;;;;;;;5023946;28;20135;-86
2024/01/05 05:40:13;;;;;;;1.45;0.95;;;;;;;;;;5022865;28;20103;-87
2024/01/05 05:42:42;;;;;;;2.15;1.13;;;;;;;;;;5023314;28;20073;-86
2024/01/05 05:45:10;;;;;;;1.58;1.15;;;;;;;;;;5021987;28;20045;-87
2024/01/05 05:47:39;;;;;;;0.70;0.70;;;;;;;;;;5026965;28;20498;-86
2024/01/05 05:50:09;;;;;;;1.95;0.90;;;;;;;;;;5022748;28;20054;-86
2024/01/05 05:52:37;;;;;;;3.08;0.93;;;;;;;;;;5018287;28;20046;-86
2024/01/05 05:55:06;;;;;;;2.20;0.90;;;;;;;;;;5022278;28;20142;-86
2024/01/05 05:57:35;;;;;;;1.20;0.80;;;;;;;;;;5024589;28;20045;-86
2024/01/05 06:00:05;;;;;;;1.60;1.00;;;;;;;;;;5021232;28;20068;-86
2024/01/05 06:02:33;;;;;;;1.40;0.90;;;;;;;;;;5019112;28;21134;-86
2024/01/05 06:05:02;;;;;;;2.88;0.90;;;;;;;;;;5026192;28;20499;-87
2024/01/05 06:07:31;;;;;;;1.10;0.95;;;;;;;;;;5024030;28;20046;-86
2024/01/05 06:10:00;;;;;;;1.48;0.90;;;;;;;;;;5021456;28;20042;-87
2024/01/05 06:12:28;;;;;;;2.25;0.77;;;;;;;;;;5016817;28;20469;-86
2024/01/05 06:14:57;;;;;;;2.25;0.95;;;;;;;;;;5018635;28;20042;-86
2024/01/05 06:17:25;;;;;;;2.38;0.93;;;;;;;;;;5020201;28;20133;-87
2024/01/05 06:19:54;;;;;;;1.42;1.02;;;;;;;;;;5021690;28;20533;-87
2024/01/05 06:22:22;;;;;;;1.13;0.75;;;;;;;;;;5024345;28;20153;-86
2024/01/05 06:24:52;;;;;;;0.70;0.70;;;;;;;;;;5024288;28;20053;-86
2024/01/05 06:27:20;;;;;;;1.98;1.20;;;;;;;;;;5023814;28;20124;-87
2024/01/05 06:30:00;;;;;;;1.33;0.75;;;;;;;;;;5019607;28;20498;-87
2024/01/05 06:32:28;;;;;;;1.60;0.90;;;;;;;;;;5023858;28;20509;-86
2024/01/05 06:34:56;;;;;;;1.25;0.90;;;;;;;;;;5016717;28;20061;-86
2024/01/05 06:37:25;;;;;;;2.63;1.30;;;;;;;;;;5023021;28;20441;-86
2024/01/05 06:39:54;;;;;;;1.63;0.80;;;;;;;;;;5021190;28;20057;-86
2024/01/05 06:42:23;;;;;;;1.77;1.20;;;;;;;;;;5023564;28;20062;-86
2024/01/05 06:44:51;;;;;;;1.70;1.02;;;;;;;;;;5020751;28;20090;-87
2024/01/05 06:47:20;;;;;;;0.90;0.90;;;;;;;;;;5022494;28;20493;-86
2024/01/05 06:49:49;;;;;;;0.85;0.82;;;;;;;;;;5023618;28;20128;-86
2024/01/05 06:52:17;;;;;;;1.90;1.00;;;;;;;;;;5018522;28;20041;-86
2024/01/05 06:54:45;;;;;;;1.00;0.85;;;;;;;;;;5022356;28;20081;-87
2024/01/05 06:57:15;;;;;;;1.95;0.90;;;;;;;;;;5016548;28;20092;-86
2024/01/05 06:59:44;;;;;;;3.45;1.10;;;;;;;;;;5019759;28;20521;-86
2024/01/05 07:02:13;;;;;;;1.10;1.00;;;;;;;;;;5022550;28;20042;-86
2024/01/05 07:04:41;;;;;;;1.35;0.95;;;;;;;;;;5021988;28;20128;-86
2024/01/05 07:07:10;;;;;;;2.25;1.10;;;;;;;;;;5020470;28;20061;-88
2024/01/05 07:09:39;;;;;;;1.77;1.20;;;;;;;;;;5020070;28;20081;-87
2024/01/05 07:12:08;;;;;;;0.90;0.70;;;;;;;;;;5024023;28;20053;-86
2024/01/05 07:14:38;;;;;;;1.67;0.90;;;;;;;;;;5023906;28;20046;-87
2024/01/05 07:17:07;;;;;;;2.25;1.08;;;;;;;;;;5023479;28;20176;-87
2024/01/05 07:19:36;;;;;;;1.33;1.10;;;;;;;;;;5022241;28;20063;-87
2024/01/05 07:22:05;;;;;;;1.30;1.00;;;;;;;;;;5017953;28;20568;-87
2024/01/05 07:24:35;;;;;;;4.03;1.15;;;;;;;;;;5021063;28;20487;-86
2024/01/05 07:27:03;;;;;;;1.48;1.00;;;;;;;;;;5016855;28;20057;-86
2024/01/05 07:29:32;;;;;;;1.17;1.08;;;;;;;;;;5018509;28;20045;-86
2024/01/05 07:32:03;;;;;;;1.95;1.10;;;;;;;;;;5021072;28;20525;-86
2024/01/05 07:34:32;;;;;;;1.83;1.00;;;;;;;;;;5016979;28;20046;-86
2024/01/05 07:37:00;;;;;;;1.85;1.20;;;;;;;;;;5016213;28;20077;-87
2024/01/05 07:39:29;;;;;;;1.63;0.90;;;;;;;;;;5022267;28;20457;-86
2024/01/05 07:41:57;;;;;;;1.63;1.08;;;;;;;;;;5019285;28;20045;-86
2024/01/05 07:44:25;;;;;;;3.85;1.00;;;;;;;;;;5021121;28;20042;-86
2024/01/05 07:46:54;;;;;;;3.08;1.05;;;;;;;;;;5016986;28;20483;-87
2024/01/05 07:49:25;;;;;;;2.60;1.40;;;;;;;;;;5017323;28;20045;-86
2024/01/05 07:51:54;;;;;;;1.15;0.90;;;;;;;;;;5017894;28;20050;-86
2024/01/05 07:54:22;;;;;;;1.08;0.70;;;;;;;;;;5022273;28;20069;-86
2024/01/05 07:56:50;;;;;;;1.38;1.00;;;;;;;;;;5019061;28;20095;-86
2024/01/05 07:59:19;;;;;;;1.33;1.02;;;;;;;;;;5018453;28;20515;-86
2024/01/05 08:01:52;;;;;;;1.75;1.13;;;;;;;;;;5022166;28;20077;-86
2024/01/05 08:04:21;;;;;;;2.15;1.00;;;;;;;;;;5017179;28;20062;-87
2024/01/05 08:06:51;;;;;;;2.45;1.20;;;;;;;;;;5015595;28;20078;-86
2024/01/05 08:09:19;;;;;;;1.30;1.20;;;;;;;;;;5017781;28;20095;-87
2024/01/05 08:11:48;;;;;;;2.20;1.08;;;;;;;;;;5022799;28;20053;-87
2024/01/05 08:14:17;;;;;;;2.20;1.17;;;;;;;;;;5017004;28;20487;-86
2024/01/05 08:16:45;;;;;;;2.88;1.20;;;;;;;;;;5022942;28;20049;-87
2024/01/05 08:19:15;;;;;;;1.10;0.90;;;;;;;;;;5020956;28;20050;-86
2024/01/05 08:21:44;;;;;;;1.55;0.90;;;;;;;;;;5016802;28;20502;-86
2024/01/05 08:24:14;;;;;;;4.57;1.20;;;;;;;;;;5020347;28;20038;-86
2024/01/05 08:26:44;;;;;;;2.35;1.20;;;;;;;;;;5015356;28;20041;-86
2024/01/05 08:29:12;;;;;;;1.85;1.33;;;;;;;;;;5020827;28;20195;-86
2024/01/05 08:31:41;;;;;;;1.27;1.10;;;;;;;;;;5021799;28;20053;-86
2024/01/05 08:34:10;;;;;;;2.58;0.90;;;;;;;;;;5022558;28;20050;-86
2024/01/05 08:36:39;;;;;;;2.80;0.85;;;;;;;;;;5021329;28;20447;-86
2024/01/05 08:39:08;;;;;;;1.38;0.95;;;;;;;;;;5016755;28;20048;-86
2024/01/05 08:41:38;;;;;;;1.05;0.98;;;;;;;;;;5022294;28;20149;-86
2024/01/05 08:44:06;;;;;;;1.00;0.90;;;;;;;;;;5017953;28;20064;-86
2024/01/05 08:46:34;;;;;;;2.35;0.93;;;;;;;;;;5025115;28;20061;-86
2024/01/05 08:49:03;;;;;;;1.10;0.85;;;;;;;;;;5023808;28;20975;-86
2024/01/05 08:51:32;;;;;;;1.10;1.00;;;;;;;;;;5025717;28;20052;-86
2024/01/05 08:54:01;;;;;;;1.75;1.17;;;;;;;;;;5022157;28;20136;-87
2024/01/05 08:56:30;;;;;;;1.10;0.90;;;;;;;;;;5025750;28;20540;-86
2024/01/05 08:59:00;;;;;;;1.10;0.88;;;;;;;;;;5019003;28;20046;-86
2024/01/05 09:01:28;;;;;;;1.00;0.93;;;;;;;;;;5019019;28;20508;-86
2024/01/05 09:03:57;;;;;;;2.30;1.08;;;;;;;;;;5023295;28;20052;-86
2024/01/05 09:06:25;;;;;;;1.25;0.95;;;;;;;;;;5023074;28;20563;-86
2024/01/05 09:08:54;;;;;;;2.28;1.38;;;;;;;;;;5019440;28;20053;-87
2024/01/05 09:11:22;;;;;;;3.08;0.93;;;;;;;;;;5024673;28;20144;-87
2024/01/05 09:13:50;;;;;;;1.35;0.82;;;;;;;;;;5019676;28;20092;-87
2024/01/05 09:16:20;;;;;;;2.80;1.00;;;;;;;;;;5025202;28;20441;-87
2024/01/05 09:18:49;;;;;;;0.90;0.80;;;;;;;;;;5025299;28;20050;-86
2024/01/05 09:21:17;;;;;;;3.45;1.17;;;;;;;;;;5023593;28;20176;-86
2024/01/05 09:23:46;;;;;;;4.65;1.23;;;;;;;;;;5022618;28;20049;-87
2024/01/05 09:26:15;;;;;;;1.05;0.93;;;;;;;;;;5018822;28;20113;-86
2024/01/05 09:28:43;;;;;;;1.45;0.90;;;;;;;;;;5021324;28;20411;-86
2024/01/05 09:31:12;;;;;;;0.82;0.80;;;;;;;;;;5023132;28;20386;-86
2024/01/05 09:33:43;;;;;;;1.88;0.90;;;;;;;;;;5023744;28;20111;-86
2024/01/05 09:36:11;;;;;;;1.55;0.90;;;;;;;;;;5024619;28;20056;-86
2024/01/05 09:38:42;;;;;;;3.47;1.20;;;;;;;;;;5024452;28;20112;-86
2024/01/05 09:41:13;;;;;;;1.05;0.73;;;;;;;;;;5021407;28;20042;-86
2024/01/05 09:43:42;;;;;;;0.98;0.80;;;;;;;;;;5022648;28;20050;-86
2024/01/05 09:46:11;;;;;;;1.23;0.90;;;;;;;;;;5023196;28;20096;-86
2024/01/05 09:48:40;;;;;;;1.73;0.90;;;;;;;;;;5018407;28;20418;-86
2024/01/05 09:51:20;;;;;;;1.10;0.73;;;;;;;;;;5022895;28;20060;-86
2024/01/05 09:53:48;;;;;;;1.73;0.90;;;;;;;;;;5020825;28;20101;-86
2024/01/05 09:56:17;;;;;;;0.80;0.75;;;;;;;;;;5023324;28;20119;-86
2024/01/05 09:58:46;;;;;;;1.42;0.95;;;;;;;;;;5020086;28;20085;-87
2024/01/05 10:01:21;;;;;;;1.10;0.80;;;;;;;;;;5020085;28;20473;-86
2024/01/05 10:03:51;;;;;;;;;;;;;;;;;;5025012;28;20070;-86
2024/01/05 10:06:21;;;;;;;1.42;0.93;;;;;;;;;;5017724;28;19991;-86
2024/01/05 10:08:52;;;;;;;2.20;0.70;;;;;;;;;;5023052;28;20076;-86
2024/01/05 10:11:29;;;;;;;1.38;0.80;;;;;;;;;;5022296;28;20049;-86
2024/01/05 10:14:05;;;;;;;2.13;0.90;;;;;;;;;;5022836;28;20506;-87
2024/01/05 10:16:36;;;;;;;0.88;0.80;;;;;;;;;;5016981;28;20085;-86
2024/01/05 10:19:13;;;;;;;1.75;0.80;;;;;;;;;;5023806;28;20454;-86
2024/01/05 10:21:44;;;;;;;1.13;0.80;;;;;;;;;;5023758;28;20406;-86
2024/01/05 10:24:16;;;;;;;0.63;0.63;;;;;;;;;;5018218;28;20060;-87
2024/01/05 10:26:48;;;;;;;1.00;0.90;;;;;;;;;;5019880;28;20081;-86
2024/01/05 10:29:16;;;;;;;1.20;0.82;;;;;;;;;;5021509;28;20104;-86
2024/01/05 10:31:45;;;;;;;1.45;0.90;;;;;;;;;;5021746;28;20057;-86
2024/01/05 10:34:13;;;;;;;1.42;0.82;;;;;;;;;;5018276;28;20054;-86
2024/01/05 10:36:43;;;;;;;1.45;0.77;;;;;;;;;;5019961;28;20390;-87
2024/01/05 10:39:14;;;;;;;3.05;0.98;;;;;;;;;;5018315;28;20042;-86
2024/01/05 10:41:43;;;;;;;1.15;0.80;;;;;;;;;;5023957;28;20049;-87
2024/01/05 10:44:16;;;;;;;1.63;1.00;;;;;;;;;;5019654;28;20041;-86
2024/01/05 10:46:45;;;;;;;1.55;0.70;;;;;;;;;;5017004;28;20066;-86
2024/01/05 10:49:14;;;;;;;1.17;0.90;;;;;;;;;;5023075;28;20482;-87
2024/01/05 10:51:44;;;;;;;1.30;0.88;;;;;;;;;;5021365;28;20050;-86
2024/01/05 10:54:13;;;;;;;1.67;0.80;;;;;;;;;;5023468;28;20486;-86
2024/01/05 10:56:43;;;;;;;1.02;0.80;;;;;;;;;;5019138;28;20514;-86
2024/01/05 10:59:11;;;;;;;0.77;0.70;;;;;;;;;;5019141;28;20045;-87
2024/01/05 11:01:39;;;;;;;3.28;0.98;;;;;;;;;;5021792;28;20325;-86
2024/01/05 11:04:08;;;;;;;2.42;1.20;;;;;;;;;;5023794;28;20154;-87
2024/01/05 11:06:38;;;;;;;1.30;0.80;;;;;;;;;;5020088;28;20057;-86
2024/01/05 11:09:13;;;;;;;0.93;0.75;;;;;;;;;;5016964;28;20050;-87
2024/01/05 11:11:50;;;;;;;1.48;1.00;;;;;;;;;;5020873;28;20478;-87
2024/01/05 11:14:23;;;;;;;1.58;1.08;;;;;;;;;;5023521;28;20068;-87
2024/01/05 11:17:07;;;;;;;1.08;0.98;;;;;;;;;;5022864;28;20124;-86
2024/01/05 11:19:48;;;;;;;2.42;1.15;;;;;;;;;;5018184;28;20111;-86
2024/01/05 11:22:18;;;;;;;2.38;1.00;;;;;;;;;;5024219;28;20057;-87
2024/01/05 11:24:49;;;;;;;2.45;1.15;;;;;;;;;;5016562;28;20466;-87
2024/01/05 11:27:35;;;;;;;4.85;1.20;;;;;;;;;;5018797;28;20068;-86
2024/01/05 11:30:04;;;;;;;2.25;1.10;;;;;;;;;;5021224;28;20037;-87
2024/01/05 11:32:32;;;;;;;1.58;0.90;;;;;;;;;;5019113;28;20046;-87
2024/01/05 11:35:02;;;;;;;1.58;0.80;;;;;;;;;;5016573;28;20541;-87
2024/01/05 11:37:31;;;;;;;0.90;0.65;;;;;;;;;;5022570;28;20054;-86
2024/01/05 11:40:01;;;;;;;1.30;0.85;;;;;;;;;;5021973;28;20057;-86
2024/01/05 11:42:31;;;;;;;1.20;0.80;;;;;;;;;;5018093;28;20059;-86
2024/01/05 11:45:00;;;;;;;1.33;1.02;;;;;;;;;;5019382;28;20076;-87
2024/01/05 11:47:42;;;;;;;1.75;0.98;;;;;;;;;;5016453;28;20041;-87
2024/01/05 11:50:27;;;;;;;2.78;1.00;;;;;;;;;;5018268;28;20046;-87
2024/01/05 11:53:11;;;;;;;2.10;1.10;;;;;;;;;;5018277;28;20068;-86
2024/01/05 11:55:47;;;;;;;1.77;1.17;;;;;;;;;;5018446;28;20096;-87
2024/01/05 11:58:19;;;;;;;2.97;1.40;;;;;;;;;;5019110;28;20604;-86
2024/01/05 12:00:48;;;;;;;3.72;1.45;;;;;;;;;;5020146;28;20053;-86
2024/01/05 12:03:17;;;;;;;2.78;1.25;;;;;;;;;;5016327;28;20049;-87
2024/01/05 12:05:48;;;;;;;2.47;1.30;;;;;;;;;;5015740;28;20132;-87
2024/01/05 12:08:18;;;;;;;2.83;1.33;;;;;;;;;;5020265;28;20056;-86
2024/01/05 12:10:52;;;;;;;4.32;1.20;;;;;;;;;;5022050;28;20046;-86
2024/01/05 12:13:24;;;;;;;1.23;0.98;;;;;;;;;;5022341;28;20050;-87
2024/01/05 12:15:53;;;;;;;1.83;1.10;;;;;;;;;;5016406;28;20050;-87
2024/01/05 12:18:30;;;;;;;1.48;1.17;;;;;;;;;;5014934;28;20063;-87
2024/01/05 12:21:06;;;;;;;1.98;1.05;;;;;;;;;;5020561;28;20495;-87
2024/01/05 12:23:37;;;;;;;3.15;1.10;;;;;;;;;;5022814;28;20132;-86
2024/01/05 12:26:08;;;;;;;2.20;0.90;;;;;;;;;;5021947;28;20054;-87
2024/01/05 12:28:38;;;;;;;1.40;0.90;;;;;;;;;;5015999;28;20053;-87
2024/01/05 12:31:07;;;;;;;1.60;1.00;;;;;;;;;;5019418;28;20046;-86
2024/01/05 12:33:37;;;;;;;1.35;0.95;;;;;;;;;;5018168;28;20414;-86
2024/01/05 12:36:09;;;;;;;1.67;1.17;;;;;;;;;;5018505;28;20042;-86
2024/01/05 12:38:38;;;;;;;2.00;1.10;;;;;;;;;;5016051;28;20050;-87
2024/01/05 12:41:09;;;;;;;3.30;1.55;;;;;;;;;;5020647;28;20038;-87
2024/01/05 12:43:38;;;;;;;3.38;1.20;;;;;;;;;;5017679;28;20061;-86
2024/01/05 12:46:06;;;;;;;5.10;1.48;;;;;;;;;;5021797;28;20054;-86
2024/01/05 12:48:35;;;;;;;3.70;1.63;;;;;;;;;;5023469;28;20053;-86
2024/01/05 12:51:04;;;;;;;3.22;1.30;;;;;;;;;;5017396;28;20120;-86
2024/01/05 12:53:33;;;;;;;1.73;1.05;;;;;;;;;;5020340;28;20064;-86
2024/01/05 12:56:09;;;;;;;2.67;1.33;;;;;;;;;;5015597;28;20058;-86
2024/01/05 12:58:39;;;;;;;1.75;1.10;;;;;;;;;;5022655;28;20062;-86
2024/01/05 13:01:07;;;;;;;1.67;1.20;;;;;;;;;;5016973;28;20057;-87
2024/01/05 13:03:36;;;;;;;2.15;0.90;;;;;;;;;;5017943;28;20058;-87
2024/01/05 13:06:08;;;;;;;2.25;1.08;;;;;;;;;;5017126;28;20078;-87
2024/01/05 13:08:37;;;;;;;2.22;1.20;;;;;;;;;;5021546;28;20045;-87
2024/01/05 13:11:06;;;;;;;2.00;1.08;;;;;;;;;;5020779;28;20058;-86
2024/01/05 13:13:36;;;;;;;1.40;0.98;;;;;;;;;;5018355;28;20057;-87
2024/01/05 13:16:04;;;;;;;2.42;1.25;;;;;;;;;;5014788;28;20042;-87
2024/01/05 13:18:33;;;;;;;3.00;1.10;;;;;;;;;;5015254;28;20046;-86
2024/01/05 13:21:01;;;;;;;1.77;1.08;;;;;;;;;;5018129;28;20145;-86
2024/01/05 13:23:30;;;;;;;1.50;0.93;;;;;;;;;;5018596;28;20049;-87
2024/01/05 13:25:59;;;;;;;1.65;1.10;;;;;;;;;;5022068;28;20042;-87
2024/01/05 13:28:28;;;;;;;1.80;0.93;;;;;;;;;;5015048;28;20046;-87
2024/01/05 13:30:58;;;;;;;2.25;1.00;;;;;;;;;;5021107;28;20049;-87
2024/01/05 13:33:26;;;;;;;1.45;0.90;;;;;;;;;;5022424;28;20038;-86
2024/01/05 13:35:55;;;;;;;3.22;1.10;;;;;;;;;;5018058;28;20050;-86
2024/01/05 13:38:23;;;;;;;2.60;0.90;;;;;;;;;;5020191;28;20045;-86
2024/01/05 13:40:52;;;;;;;3.17;1.00;;;;;;;;;;5018828;28;20049;-87
2024/01/05 13:43:20;;;;;;;1.02;0.77;;;;;;;;;;5023553;28;20379;-87
2024/01/05 13:45:54;;;;;;;1.13;0.80;;;;;;;;;;5017807;28;20133;-87
2024/01/05 13:48:24;;;;;;;1.75;1.05;;;;;;;;;;5017851;28;20081;-86
2024/01/05 13:50:52;;;;;;;1.67;1.10;;;;;;;;;;5021062;28;20058;-86
2024/01/05 13:53:21;;;;;;;2.22;0.95;;;;;;;;;;5021365;28;20052;-87
2024/01/05 13:55:49;;;;;;;5.07;1.10;;;;;;;;;;5021220;28;20469;-87
2024/01/05 13:58:18;;;;;;;1.67;1.05;;;;;;;;;;5017604;28;20438;-87
2024/01/05 14:00:49;;;;;;;4.78;1.35;;;;;;;;;;5021623;28;20072;-86
2024/01/05 14:03:17;;;;;;;2.10;1.08;;;;;;;;;;5017330;28;20538;-86
2024/01/05 14:05:48;;;;;;;2.72;0.98;;;;;;;;;;5024271;28;20042;-87
2024/01/05 14:08:18;;;;;;;4.60;1.02;;;;;;;;;;5023813;28;20073;-87
2024/01/05 14:10:49;;;;;;;1.42;0.90;;;;;;;;;;5022211;28;20096;-87
2024/01/05 14:13:18;;;;;;;2.65;1.02;;;;;;;;;;5022610;28;20052;-87
2024/01/05 14:15:46;;;;;;;2.78;0.98;;;;;;;;;;5025189;28;20519;-87
2024/01/05 14:18:14;;;;;;;3.35;1.33;;;;;;;;;;5020940;28;20423;-87
2024/01/05 14:20:43;;;;;;;2.30;1.23;;;;;;;;;;5020744;28;20137;-87
2024/01/05 14:23:13;;;;;;;1.75;1.20;;;;;;;;;;5022254;28;20397;-87
2024/01/05 14:25:42;;;;;;;4.65;1.55;;;;;;;;;;5018422;28;20474;-87
2024/01/05 14:28:10;;;;;;;1.92;1.10;;;;;;;;;;5017824;28;20092;-87
2024/01/05 14:30:38;;;;;;;5.82;1.75;;;;;;;;;;5019659;28;20053;-87
2024/01/05 14:33:08;;;;;;;3.45;1.90;;;;;;;;;;5022652;28;20266;-87
2024/01/05 14:35:36;;;;;;;4.57;2.22;;;;;;;;;;5023321;28;20056;-87
2024/01/05 14:38:05;;;;;;;3.35;1.30;;;;;;;;;;5017643;28;20092;-87
2024/01/05 14:40:36;;;;;;;27.30;14.70;;;;;;;;;;5020056;28;20042;-87
2024/01/05 14:43:05;;;;;;;15.18;8.40;;;;;;;;;;5018595;28;20100;-87
2024/01/05 14:45:33;;;;;;;14.48;7.40;;;;;;;;;;5023228;28;20080;-87
2024/01/05 14:48:01;;;;;;;11.10;5.60;;;;;;;;;;5024026;28;20061;-87
2024/01/05 14:50:30;;;;;;;11.00;5.43;;;;;;;;;;5021767;28;20061;-88
2024/01/05 14:52:59;;;;;;;5.72;3.10;;;;;;;;;;5024577;28;20080;-87
2024/01/05 14:55:40;;;;;;;7.57;3.53;;;;;;;;;;5022598;28;20100;-87
2024/01/05 14:58:08;;;;;;;4.88;3.38;;;;;;;;;;5016667;28;20487;-87